Harrisburg, IL

9:41 PM CDT on September 19, 2017 (GMT -0500)
Harrisburg-Raleigh

Weather History for KHSB - January, 2014

Change the Weather History Date:

Thursday, January 23, 2014

  Actual Average (KMWA) Record (KMWA)
Temperature  
Mean Temperature 14 °F -  
Max Temperature 22 °F 42 °F 64 °F (2002)
Min Temperature 5 °F 22 °F 0 °F (1977)
Degree Days  
Heating Degree Days 52    
Moisture  
Dew Point 0 °F    
Average Humidity 65    
Maximum Humidity 80    
Minimum Humidity 55    
Precipitation  
Precipitation 0.00 in - - ()
Sea Level Pressure  
Sea Level Pressure 30.62 in    
Wind  
Wind Speed 11 mph (NW)    
Max Wind Speed 17 mph    
Max Gust Speed 26 mph    
Visibility 10 miles    
Events Snow    
Averages and records for this station are not official NWS values.
T = Trace of Precipitation, MM = Missing Value Source: NWS Daily Summary

Daily Weather History Graph

Daily Weather History Graph

Search for Another Location

Airport or City:

Trip Planner

Search our weather history database for the weather conditions in past years. The results will help you decide how hot, cold, wet, or windy it might be!

Date:

Astronomy

Jan. 23, 2014 Rise Set
Actual Time 7:04 AM CST 5:07 PM CST
Civil Twilight 6:36 AM CST 5:36 PM CST
Nautical Twilight 6:04 AM CST 6:07 PM CST
Astronomical Twilight 5:33 AM CST 6:39 PM CST
Moon No Moon Rise 10:48 AM CST (1/23)
Length of Visible Light 10h 59m
Length of Day
10h 03m
Waning Gibbous, 55% of the Moon is Illuminated
Jan 23
Waning Gibbous
Jan 23
Last Quarter
Jan 30
New
Feb 6
First Quarter
Feb 14
Full

Hourly Weather History & Observations

Time (CST) Temp. Windchill Dew Point Humidity Pressure Visibility Wind Dir Wind Speed Gust Speed Precip Events Conditions
12:15 AM 22.6 °F 11.3 °F 11.8 °F 63% 30.27 in 10.0 mi NNW 11.5 mph 20.7 mph N/A   Overcast
12:35 AM 22.3 °F 11.5 °F 12.0 °F 65% 30.28 in 10.0 mi NW 10.4 mph 16.1 mph N/A   Overcast
12:55 AM 21.7 °F 9.6 °F 10.8 °F 63% 30.29 in 10.0 mi NNW 12.7 mph 17.3 mph N/A   Overcast
1:15 AM 19.6 °F 6.2 °F 8.8 °F 63% 30.30 in 10.0 mi NNW 13.8 mph 19.6 mph N/A   Mostly Cloudy
1:35 AM 18.3 °F 3.1 °F 7.7 °F 63% 30.32 in 10.0 mi NNW 17.3 mph 23.0 mph N/A   Clear
1:55 AM 17.4 °F 4.1 °F 7.2 °F 64% 30.34 in 10.0 mi NW 12.7 mph 25.3 mph N/A   Scattered Clouds
2:15 AM 16.9 °F 2.8 °F 8.1 °F 68% 30.36 in 7.0 mi North 13.8 mph 21.9 mph N/A Snow Light Snow
2:35 AM 14.0 °F -0.2 °F 5.0 °F 67% 30.38 in 10.0 mi North 12.7 mph - N/A   Mostly Cloudy
2:55 AM 12.7 °F -3.6 °F 3.6 °F 67% 30.40 in 10.0 mi NNW 16.1 mph 25.3 mph N/A   Clear
3:15 AM 12.2 °F -1.0 °F 3.2 °F 67% 30.41 in 10.0 mi NW 10.4 mph 13.8 mph N/A   Scattered Clouds
3:35 AM 11.1 °F -4.5 °F 2.5 °F 68% 30.43 in 10.0 mi NNW 13.8 mph 19.6 mph N/A   Mostly Cloudy
3:55 AM 10.6 °F -6.4 °F 3.4 °F 73% 30.44 in 7.0 mi NW 16.1 mph 21.9 mph N/A   Mostly Cloudy
4:15 AM 8.8 °F -7.5 °F -2.6 °F 60% 30.46 in 10.0 mi NNW 13.8 mph 21.9 mph N/A   Scattered Clouds
4:35 AM 7.9 °F -8.6 °F -2.7 °F 62% 30.48 in 10.0 mi NNW 13.8 mph 26.5 mph N/A   Clear
4:55 AM 6.8 °F -8.6 °F -4.0 °F 61% 30.49 in 10.0 mi NNW 11.5 mph 17.3 mph N/A   Clear
5:15 AM 6.6 °F -8.0 °F -4.0 °F 62% 30.50 in 10.0 mi North 10.4 mph - N/A   Clear
5:35 AM 6.6 °F -8.8 °F -3.3 °F 64% 30.52 in 10.0 mi NW 11.5 mph - N/A   Clear
5:55 AM 6.1 °F -10.2 °F -3.1 °F 66% 30.53 in 10.0 mi NNW 12.7 mph - N/A   Clear
6:15 AM 5.9 °F -9.7 °F -2.0 °F 70% 30.56 in 10.0 mi NNW 11.5 mph 17.3 mph N/A   Clear
6:35 AM 5.7 °F -10.7 °F -3.3 °F 66% 30.57 in 10.0 mi NW 12.7 mph 18.4 mph N/A   Clear
6:55 AM 5.5 °F -9.3 °F -4.0 °F 65% 30.58 in 10.0 mi NW 10.4 mph 16.1 mph N/A   Clear
7:15 AM 5.0 °F -9.1 °F -4.0 °F 66% 30.59 in 10.0 mi NW 9.2 mph - N/A   Clear
7:35 AM 5.2 °F -10.6 °F -4.5 °F 64% 30.60 in 10.0 mi NW 11.5 mph 24.2 mph N/A   Clear
7:55 AM 5.5 °F -7.4 °F -4.0 °F 65% 30.61 in 10.0 mi NW 8.1 mph - N/A   Clear
8:15 AM 5.7 °F -7.2 °F -3.8 °F 65% 30.62 in 10.0 mi NW 8.1 mph 17.3 mph N/A   Clear
8:35 AM 6.4 °F -7.3 °F -3.1 °F 65% 30.63 in 10.0 mi NW 9.2 mph - N/A   Clear
8:55 AM 6.4 °F -8.2 °F -3.3 °F 64% 30.64 in 10.0 mi NW 10.4 mph - N/A   Clear
9:15 AM 7.3 °F -10.0 °F -2.9 °F 63% 30.65 in 10.0 mi WNW 15.0 mph - N/A   Clear
9:35 AM 8.4 °F -6.5 °F -2.0 °F 63% 30.66 in 10.0 mi NW 11.5 mph - N/A   Clear
9:55 AM 8.4 °F -7.3 °F -2.2 °F 62% 30.67 in 10.0 mi NW 12.7 mph 18.4 mph N/A   Clear
10:15 AM 8.4 °F -8.6 °F -2.4 °F 62% 30.68 in 10.0 mi NW 15.0 mph 19.6 mph N/A   Clear
10:35 AM 8.4 °F -8.6 °F -1.7 °F 64% 30.69 in 10.0 mi WNW 15.0 mph 18.4 mph N/A   Clear
10:55 AM 9.1 °F -7.7 °F -1.5 °F 62% 30.70 in 10.0 mi WNW 15.0 mph - N/A   Clear
11:15 AM 9.5 °F -5.2 °F -1.5 °F 61% 30.70 in 10.0 mi NNW 11.5 mph - N/A   Clear
11:35 AM 9.5 °F -5.9 °F -1.1 °F 62% 30.70 in 10.0 mi NW 12.7 mph - N/A   Clear
11:55 AM 10.6 °F -3.8 °F -0.4 °F 61% 30.69 in 10.0 mi NW 11.5 mph - N/A   Clear
12:15 PM 11.1 °F -3.9 °F -0.6 °F 59% 30.68 in 10.0 mi WNW 12.7 mph 17.3 mph N/A   Clear
12:35 PM 10.9 °F -1.8 °F -2.2 °F 56% 30.68 in 10.0 mi NNW 9.2 mph 17.3 mph N/A   Clear
12:55 PM 11.1 °F -3.2 °F -0.9 °F 58% 30.68 in 10.0 mi NNW 11.5 mph 16.1 mph N/A   Clear
1:15 PM 11.1 °F -3.9 °F -0.8 °F 59% 30.68 in 10.0 mi WNW 12.7 mph 17.3 mph N/A   Clear
1:35 PM 11.3 °F -4.3 °F -0.9 °F 58% 30.68 in 10.0 mi WNW 13.8 mph 17.3 mph N/A   Clear
1:55 PM 11.7 °F -3.8 °F -1.1 °F 57% 30.68 in 10.0 mi WNW 13.8 mph 18.4 mph N/A   Clear
2:15 PM 12.0 °F -3.4 °F -0.9 °F 56% 30.68 in 10.0 mi WNW 13.8 mph 20.7 mph N/A   Clear
2:35 PM 12.9 °F -1.6 °F 0.1 °F 57% 30.69 in 10.0 mi WNW 12.7 mph 16.1 mph N/A   Clear
2:55 PM 12.4 °F 0.0 °F -0.9 °F 55% 30.69 in 10.0 mi NW 9.2 mph 17.3 mph N/A   Clear
3:15 PM 12.9 °F -2.2 °F -0.4 °F 55% 30.70 in 10.0 mi NW 13.8 mph - N/A   Clear
3:35 PM 13.1 °F -2.0 °F -0.4 °F 55% 30.70 in 10.0 mi WNW 13.8 mph 19.6 mph N/A   Clear
3:55 PM 12.0 °F -3.4 °F -0.9 °F 56% 30.70 in 10.0 mi NW 13.8 mph - N/A   Clear
4:15 PM 11.8 °F -2.3 °F -0.9 °F 57% 30.71 in 10.0 mi NW 11.5 mph - N/A   Clear
4:35 PM 11.5 °F -0.2 °F -1.3 °F 57% 30.72 in 10.0 mi NW 8.1 mph - N/A   Clear
4:55 PM 11.1 °F -2.4 °F -0.8 °F 59% 30.71 in 10.0 mi WNW 10.4 mph - N/A   Clear
5:15 PM 10.4 °F -2.4 °F -0.4 °F 62% 30.72 in 10.0 mi WNW 9.2 mph - N/A   Clear
5:35 PM 10.4 °F -2.4 °F -0.4 °F 62% 30.72 in 10.0 mi WNW 9.2 mph - N/A   Clear
5:55 PM 10.0 °F -1.9 °F -0.6 °F 62% 30.73 in 10.0 mi WNW 8.1 mph - N/A   Clear
6:15 PM 9.5 °F -1.5 °F -0.4 °F 64% 30.73 in 10.0 mi WNW 6.9 mph - N/A   Clear
6:35 PM 9.3 °F -1.7 °F -0.4 °F 65% 30.74 in 10.0 mi WNW 6.9 mph - N/A   Clear
6:55 PM 9.1 °F -1.9 °F -0.4 °F 65% 30.74 in 10.0 mi WNW 6.9 mph - N/A   Clear
7:15 PM 8.6 °F 0.1 °F 0.3 °F 69% 30.74 in 10.0 mi West 4.6 mph - N/A   Clear
7:35 PM 7.5 °F -3.9 °F 0.3 °F 72% 30.75 in 10.0 mi West 6.9 mph - N/A   Clear
7:55 PM 7.0 °F -3.3 °F 0.3 °F 74% 30.75 in 10.0 mi West 5.8 mph - N/A   Clear
8:15 PM 7.5 °F -1.1 °F 0.5 °F 73% 30.75 in 10.0 mi WNW 4.6 mph - N/A   Clear
8:35 PM 7.5 °F 0.8 °F 0.3 °F 72% 30.75 in 10.0 mi WNW 3.5 mph - N/A   Clear
8:55 PM 7.3 °F 0.5 °F -0.0 °F 72% 30.75 in 10.0 mi WNW 3.5 mph - N/A   Clear
9:15 PM 6.8 °F - -0.0 °F 74% 30.75 in 10.0 mi Calm Calm - N/A   Clear
9:55 PM 6.8 °F - 0.7 °F 76% 30.76 in 10.0 mi Calm Calm - N/A   Clear
10:15 PM 6.8 °F -2.0 °F 0.5 °F 75% 30.76 in 10.0 mi WSW 4.6 mph - N/A   Clear
10:35 PM 6.6 °F -0.3 °F 0.1 °F 75% 30.76 in 10.0 mi WSW 3.5 mph - N/A   Clear
10:55 PM 6.4 °F -0.5 °F 0.3 °F 76% 30.76 in 10.0 mi WSW 3.5 mph - N/A   Clear
11:15 PM 5.9 °F - -0.2 °F 76% 30.76 in 10.0 mi Calm Calm - N/A   Clear
11:35 PM 5.7 °F -1.3 °F 0.3 °F 78% 30.75 in 10.0 mi West 3.5 mph - N/A   Clear
11:55 PM 5.0 °F - -0.0 °F 80% 30.75 in 10.0 mi Calm Calm - N/A   Clear